sensor_id;sensor_type;location;lat;lon;timestamp;temperature;humidity
14357;DHT22;7262;48.764;9.166;2024-03-23T00:55:12;8.90;99.90
14357;DHT22;7262;48.764;9.166;2024-03-23T00:57:39;8.90;99.90
14357;DHT22;7262;48.764;9.166;2024-03-23T01:00:05;8.90;99.90
14357;DHT22;7262;48.764;9.166;2024-03-23T01:02:32;8.90;99.90
14357;DHT22;7262;48.764;9.166;2024-03-23T01:04:58;8.90;99.90
14357;DHT22;7262;48.764;9.166;2024-03-23T01:07:25;8.90;99.90
14357;DHT22;7262;48.764;9.166;2024-03-23T01:09:50;8.80;99.90
14357;DHT22;7262;48.764;9.166;2024-03-23T01:12:19;8.80;99.90
14357;DHT22;7262;48.764;9.166;2024-03-23T01:14:45;8.80;99.90
14357;DHT22;7262;48.764;9.166;2024-03-23T01:17:12;8.80;99.90
14357;DHT22;7262;48.764;9.166;2024-03-23T01:19:37;8.80;99.90
14357;DHT22;7262;48.764;9.166;2024-03-23T01:22:06;8.80;99.90
14357;DHT22;7262;48.764;9.166;2024-03-23T01:24:32;8.80;99.90
14357;DHT22;7262;48.764;9.166;2024-03-23T01:26:59;8.80;99.90
14357;DHT22;7262;48.764;9.166;2024-03-23T01:29:26;8.80;99.90
14357;DHT22;7262;48.764;9.166;2024-03-23T01:31:53;8.80;99.90
14357;DHT22;7262;48.764;9.166;2024-03-23T01:34:18;8.80;99.90
14357;DHT22;7262;48.764;9.166;2024-03-23T01:36:46;8.80;99.90
14357;DHT22;7262;48.764;9.166;2024-03-23T01:39:12;8.90;99.90
14357;DHT22;7262;48.764;9.166;2024-03-23T01:41:39;8.90;99.90
14357;DHT22;7262;48.764;9.166;2024-03-23T01:44:07;8.90;99.90
14357;DHT22;7262;48.764;9.166;2024-03-23T01:46:36;9.00;99.90
14357;DHT22;7262;48.764;9.166;2024-03-23T01:49:02;9.00;99.90
14357;DHT22;7262;48.764;9.166;2024-03-23T01:51:30;9.00;99.90
14357;DHT22;7262;48.764;9.166;2024-03-23T01:53:56;9.00;99.90
14357;DHT22;7262;48.764;9.166;2024-03-23T01:56:23;9.10;99.90
14357;DHT22;7262;48.764;9.166;2024-03-23T01:58:49;9.10;99.90
14357;DHT22;7262;48.764;9.166;2024-03-23T02:01:15;9.20;99.90
14357;DHT22;7262;48.764;9.166;2024-03-23T02:03:43;9.30;99.90
14357;DHT22;7262;48.764;9.166;2024-03-23T02:06:10;9.30;99.90
14357;DHT22;7262;48.764;9.166;2024-03-23T02:08:35;9.30;99.90
14357;DHT22;7262;48.764;9.166;2024-03-23T02:11:02;9.30;99.90
14357;DHT22;7262;48.764;9.166;2024-03-23T02:13:28;9.20;99.90
14357;DHT22;7262;48.764;9.166;2024-03-23T02:15:57;9.30;99.90
14357;DHT22;7262;48.764;9.166;2024-03-23T02:18:23;9.30;99.90
14357;DHT22;7262;48.764;9.166;2024-03-23T02:20:51;9.30;99.90
14357;DHT22;7262;48.764;9.166;2024-03-23T02:23:18;9.30;99.90
14357;DHT22;7262;48.764;9.166;2024-03-23T02:25:45;9.30;99.90
14357;DHT22;7262;48.764;9.166;2024-03-23T02:28:11;9.30;99.90
14357;DHT22;7262;48.764;9.166;2024-03-23T02:30:38;9.30;99.90
14357;DHT22;7262;48.764;9.166;2024-03-23T02:33:03;9.30;99.90
14357;DHT22;7262;48.764;9.166;2024-03-23T02:35:30;9.40;99.90
14357;DHT22;7262;48.764;9.166;2024-03-23T02:37:56;9.30;99.90
14357;DHT22;7262;48.764;9.166;2024-03-23T02:40:24;9.40;99.90
14357;DHT22;7262;48.764;9.166;2024-03-23T02:42:50;9.40;99.90
14357;DHT22;7262;48.764;9.166;2024-03-23T02:45:17;9.40;99.90
14357;DHT22;7262;48.764;9.166;2024-03-23T02:47:44;9.40;99.90
14357;DHT22;7262;48.764;9.166;2024-03-23T02:50:11;9.40;99.90
14357;DHT22;7262;48.764;9.166;2024-03-23T02:52:37;9.40;99.90
14357;DHT22;7262;48.764;9.166;2024-03-23T02:55:04;9.40;99.90
14357;DHT22;7262;48.764;9.166;2024-03-23T02:57:32;9.40;99.90
14357;DHT22;7262;48.764;9.166;2024-03-23T03:00:02;9.30;99.90
14357;DHT22;7262;48.764;9.166;2024-03-23T03:02:28;9.30;99.90
14357;DHT22;7262;48.764;9.166;2024-03-23T03:04:55;9.30;99.90
14357;DHT22;7262;48.764;9.166;2024-03-23T03:07:21;9.30;99.90
14357;DHT22;7262;48.764;9.166;2024-03-23T03:09:47;9.30;99.90
14357;DHT22;7262;48.764;9.166;2024-03-23T03:12:13;9.30;99.90
14357;DHT22;7262;48.764;9.166;2024-03-23T03:14:41;9.30;99.90
14357;DHT22;7262;48.764;9.166;2024-03-23T03:17:07;9.30;99.90
14357;DHT22;7262;48.764;9.166;2024-03-23T03:19:34;9.20;99.90
14357;DHT22;7262;48.764;9.166;2024-03-23T03:22:00;9.20;99.90
14357;DHT22;7262;48.764;9.166;2024-03-23T03:24:26;9.20;99.90
14357;DHT22;7262;48.764;9.166;2024-03-23T03:26:52;9.30;99.90
14357;DHT22;7262;48.764;9.166;2024-03-23T03:29:19;9.20;99.90
14357;DHT22;7262;48.764;9.166;2024-03-23T03:31:46;9.20;99.90
14357;DHT22;7262;48.764;9.166;2024-03-23T03:34:15;9.10;99.90
14357;DHT22;7262;48.764;9.166;2024-03-23T03:36:41;9.10;99.90
14357;DHT22;7262;48.764;9.166;2024-03-23T03:39:07;9.20;99.90
14357;DHT22;7262;48.764;9.166;2024-03-23T03:41:33;9.20;99.90
14357;DHT22;7262;48.764;9.166;2024-03-23T03:44:00;9.20;99.90
14357;DHT22;7262;48.764;9.166;2024-03-23T03:46:27;9.20;99.90
14357;DHT22;7262;48.764;9.166;2024-03-23T03:48:55;9.20;99.90
14357;DHT22;7262;48.764;9.166;2024-03-23T03:51:21;9.30;99.90
14357;DHT22;7262;48.764;9.166;2024-03-23T03:53:48;9.30;99.90
14357;DHT22;7262;48.764;9.166;2024-03-23T03:56:13;9.30;99.90
14357;DHT22;7262;48.764;9.166;2024-03-23T03:58:40;9.30;99.90
14357;DHT22;7262;48.764;9.166;2024-03-23T04:01:06;9.40;99.90
14357;DHT22;7262;48.764;9.166;2024-03-23T04:03:32;9.50;99.90
14357;DHT22;7262;48.764;9.166;2024-03-23T04:06:03;9.60;99.90
14357;DHT22;7262;48.764;9.166;2024-03-23T04:08:30;9.70;99.90
14357;DHT22;7262;48.764;9.166;2024-03-23T04:10:55;9.70;99.90
14357;DHT22;7262;48.764;9.166;2024-03-23T04:13:22;9.60;99.90
14357;DHT22;7262;48.764;9.166;2024-03-23T04:15:48;9.60;99.90
14357;DHT22;7262;48.764;9.166;2024-03-23T04:18:15;9.60;99.90
14357;DHT22;7262;48.764;9.166;2024-03-23T04:20:41;9.70;99.90
14357;DHT22;7262;48.764;9.166;2024-03-23T04:23:09;9.90;99.90
14357;DHT22;7262;48.764;9.166;2024-03-23T04:25:34;9.90;99.90
14357;DHT22;7262;48.764;9.166;2024-03-23T04:28:01;10.00;99.90
14357;DHT22;7262;48.764;9.166;2024-03-23T04:30:27;10.00;99.90
14357;DHT22;7262;48.764;9.166;2024-03-23T04:32:54;10.00;99.90
14357;DHT22;7262;48.764;9.166;2024-03-23T04:35:22;10.00;99.90
14357;DHT22;7262;48.764;9.166;2024-03-23T05:22:46;10.40;99.90
14357;DHT22;7262;48.764;9.166;2024-03-23T05:25:13;10.30;99.90
14357;DHT22;7262;48.764;9.166;2024-03-23T05:27:39;10.30;99.90
14357;DHT22;7262;48.764;9.166;2024-03-23T05:30:06;10.30;99.90
14357;DHT22;7262;48.764;9.166;2024-03-23T05:32:34;10.20;99.90
14357;DHT22;7262;48.764;9.166;2024-03-23T05:35:01;10.20;99.90
14357;DHT22;7262;48.764;9.166;2024-03-23T05:37:26;10.00;99.90
14357;DHT22;7262;48.764;9.166;2024-03-23T05:39:54;10.00;99.90
14357;DHT22;7262;48.764;9.166;2024-03-23T05:42:20;10.00;99.90
14357;DHT22;7262;48.764;9.166;2024-03-23T05:44:47;9.90;99.90
14357;DHT22;7262;48.764;9.166;2024-03-23T05:47:13;9.90;99.90
14357;DHT22;7262;48.764;9.166;2024-03-23T05:49:40;9.90;99.90
14357;DHT22;7262;48.764;9.166;2024-03-23T05:52:07;9.80;99.90
14357;DHT22;7262;48.764;9.166;2024-03-23T05:54:34;9.80;99.90
14357;DHT22;7262;48.764;9.166;2024-03-23T05:57:01;9.80;99.90
14357;DHT22;7262;48.764;9.166;2024-03-23T05:59:28;9.80;99.90
14357;DHT22;7262;48.764;9.166;2024-03-23T06:01:53;9.70;99.90
14357;DHT22;7262;48.764;9.166;2024-03-23T06:04:20;9.70;99.90
14357;DHT22;7262;48.764;9.166;2024-03-23T06:06:46;9.60;99.90
14357;DHT22;7262;48.764;9.166;2024-03-23T06:09:13;9.60;99.90
14357;DHT22;7262;48.764;9.166;2024-03-23T06:11:39;9.50;99.90
14357;DHT22;7262;48.764;9.166;2024-03-23T06:14:07;9.50;99.90
14357;DHT22;7262;48.764;9.166;2024-03-23T06:16:33;9.50;99.90
14357;DHT22;7262;48.764;9.166;2024-03-23T06:19:00;9.30;99.90
14357;DHT22;7262;48.764;9.166;2024-03-23T06:21:25;9.40;99.90
14357;DHT22;7262;48.764;9.166;2024-03-23T06:23:53;9.30;99.90
14357;DHT22;7262;48.764;9.166;2024-03-23T06:26:18;9.30;99.90
14357;DHT22;7262;48.764;9.166;2024-03-23T06:28:45;9.30;99.90
14357;DHT22;7262;48.764;9.166;2024-03-23T06:31:13;9.20;99.90
14357;DHT22;7262;48.764;9.166;2024-03-23T06:33:40;9.20;99.90
14357;DHT22;7262;48.764;9.166;2024-03-23T06:36:07;9.10;99.90
14357;DHT22;7262;48.764;9.166;2024-03-23T06:38:36;9.10;99.90
14357;DHT22;7262;48.764;9.166;2024-03-23T06:41:03;9.00;99.90
14357;DHT22;7262;48.764;9.166;2024-03-23T06:43:30;9.00;99.90
14357;DHT22;7262;48.764;9.166;2024-03-23T06:45:56;8.90;99.90
14357;DHT22;7262;48.764;9.166;2024-03-23T06:48:26;8.90;99.90
14357;DHT22;7262;48.764;9.166;2024-03-23T06:50:55;8.80;99.90
14357;DHT22;7262;48.764;9.166;2024-03-23T06:53:27;8.90;99.90
14357;DHT22;7262;48.764;9.166;2024-03-23T06:55:53;8.90;99.90
14357;DHT22;7262;48.764;9.166;2024-03-23T06:58:21;8.90;99.90
14357;DHT22;7262;48.764;9.166;2024-03-23T07:00:47;9.00;99.90
14357;DHT22;7262;48.764;9.166;2024-03-23T07:03:14;8.90;99.90
14357;DHT22;7262;48.764;9.166;2024-03-23T07:05:41;9.10;99.90
14357;DHT22;7262;48.764;9.166;2024-03-23T07:08:11;9.10;99.90
14357;DHT22;7262;48.764;9.166;2024-03-23T07:10:39;9.20;99.90
14357;DHT22;7262;48.764;9.166;2024-03-23T07:13:06;9.40;99.90
14357;DHT22;7262;48.764;9.166;2024-03-23T07:15:32;9.50;99.90
14357;DHT22;7262;48.764;9.166;2024-03-23T07:17:58;9.60;99.90
14357;DHT22;7262;48.764;9.166;2024-03-23T07:20:24;9.60;99.90
14357;DHT22;7262;48.764;9.166;2024-03-23T07:22:55;9.70;99.90
14357;DHT22;7262;48.764;9.166;2024-03-23T07:25:21;9.80;99.90
14357;DHT22;7262;48.764;9.166;2024-03-23T07:27:48;9.90;99.90
14357;DHT22;7262;48.764;9.166;2024-03-23T07:30:14;10.00;99.90
14357;DHT22;7262;48.764;9.166;2024-03-23T07:32:41;10.20;99.90
14357;DHT22;7262;48.764;9.166;2024-03-23T07:35:09;10.50;99.90
14357;DHT22;7262;48.764;9.166;2024-03-23T07:37:36;10.70;99.90
14357;DHT22;7262;48.764;9.166;2024-03-23T07:40:04;10.90;99.90
14357;DHT22;7262;48.764;9.166;2024-03-23T07:42:31;10.90;99.90
14357;DHT22;7262;48.764;9.166;2024-03-23T07:44:56;10.70;99.90
14357;DHT22;7262;48.764;9.166;2024-03-23T07:47:23;10.60;99.90
14357;DHT22;7262;48.764;9.166;2024-03-23T07:49:49;10.50;99.90
14357;DHT22;7262;48.764;9.166;2024-03-23T07:52:18;10.40;99.90
14357;DHT22;7262;48.764;9.166;2024-03-23T07:54:44;10.30;99.90
14357;DHT22;7262;48.764;9.166;2024-03-23T07:57:28;10.10;99.90
14357;DHT22;7262;48.764;9.166;2024-03-23T07:59:54;9.90;99.90
14357;DHT22;7262;48.764;9.166;2024-03-23T08:02:21;9.40;99.90
14357;DHT22;7262;48.764;9.166;2024-03-23T08:04:47;9.10;99.90
14357;DHT22;7262;48.764;9.166;2024-03-23T08:07:14;9.00;99.90
14357;DHT22;7262;48.764;9.166;2024-03-23T08:09:39;8.70;99.90
14357;DHT22;7262;48.764;9.166;2024-03-23T08:12:06;8.50;99.90
14357;DHT22;7262;48.764;9.166;2024-03-23T08:14:33;8.40;99.90
14357;DHT22;7262;48.764;9.166;2024-03-23T08:17:03;8.40;99.90
14357;DHT22;7262;48.764;9.166;2024-03-23T08:19:29;8.50;99.90
14357;DHT22;7262;48.764;9.166;2024-03-23T08:21:56;8.70;99.90
14357;DHT22;7262;48.764;9.166;2024-03-23T08:24:22;8.80;99.90
14357;DHT22;7262;48.764;9.166;2024-03-23T08:26:49;9.30;99.90
14357;DHT22;7262;48.764;9.166;2024-03-23T08:29:14;9.30;99.90
14357;DHT22;7262;48.764;9.166;2024-03-23T08:31:43;9.20;99.90
14357;DHT22;7262;48.764;9.166;2024-03-23T08:34:08;9.10;99.90
14357;DHT22;7262;48.764;9.166;2024-03-23T08:36:35;9.10;99.90
14357;DHT22;7262;48.764;9.166;2024-03-23T08:39:01;9.20;99.90
14357;DHT22;7262;48.764;9.166;2024-03-23T08:41:28;9.30;99.90
14357;DHT22;7262;48.764;9.166;2024-03-23T08:43:54;9.70;99.90
14357;DHT22;7262;48.764;9.166;2024-03-23T08:46:21;10.90;99.90
14357;DHT22;7262;48.764;9.166;2024-03-23T08:48:48;11.10;99.90
14357;DHT22;7262;48.764;9.166;2024-03-23T08:51:15;11.60;99.90
14357;DHT22;7262;48.764;9.166;2024-03-23T08:53:41;12.50;99.90
14357;DHT22;7262;48.764;9.166;2024-03-23T08:56:09;12.50;99.90
14357;DHT22;7262;48.764;9.166;2024-03-23T08:58:35;12.50;99.90
14357;DHT22;7262;48.764;9.166;2024-03-23T09:01:03;12.20;99.90
14357;DHT22;7262;48.764;9.166;2024-03-23T09:03:29;12.40;99.90
14357;DHT22;7262;48.764;9.166;2024-03-23T09:05:57;12.70;99.90
14357;DHT22;7262;48.764;9.166;2024-03-23T09:08:23;12.40;99.90
14357;DHT22;7262;48.764;9.166;2024-03-23T09:10:51;11.80;99.90
14357;DHT22;7262;48.764;9.166;2024-03-23T09:13:17;11.00;99.90
14357;DHT22;7262;48.764;9.166;2024-03-23T09:15:46;10.60;99.90
14357;DHT22;7262;48.764;9.166;2024-03-23T09:18:11;10.50;99.90
14357;DHT22;7262;48.764;9.166;2024-03-23T09:20:38;10.40;99.90
14357;DHT22;7262;48.764;9.166;2024-03-23T09:23:05;10.30;99.90
14357;DHT22;7262;48.764;9.166;2024-03-23T09:25:35;10.30;99.90
14357;DHT22;7262;48.764;9.166;2024-03-23T09:28:01;10.60;99.90
14357;DHT22;7262;48.764;9.166;2024-03-23T09:56:52;11.20;99.90
14357;DHT22;7262;48.764;9.166;2024-03-23T10:27:56;11.20;99.90
14357;DHT22;7262;48.764;9.166;2024-03-23T10:30:25;11.00;99.90
14357;DHT22;7262;48.764;9.166;2024-03-23T10:32:53;11.00;99.90
14357;DHT22;7262;48.764;9.166;2024-03-23T10:35:33;11.00;99.90
14357;DHT22;7262;48.764;9.166;2024-03-23T10:37:58;10.80;99.90
14357;DHT22;7262;48.764;9.166;2024-03-23T10:40:25;10.70;99.90
14357;DHT22;7262;48.764;9.166;2024-03-23T10:42:52;10.70;99.90
14357;DHT22;7262;48.764;9.166;2024-03-23T10:45:23;10.90;99.90
14357;DHT22;7262;48.764;9.166;2024-03-23T10:47:50;10.90;99.90
14357;DHT22;7262;48.764;9.166;2024-03-23T10:50:17;10.90;99.90
14357;DHT22;7262;48.764;9.166;2024-03-23T10:52:46;10.80;99.90
14357;DHT22;7262;48.764;9.166;2024-03-23T10:55:13;10.40;99.90
14357;DHT22;7262;48.764;9.166;2024-03-23T10:57:40;10.10;99.90
14357;DHT22;7262;48.764;9.166;2024-03-23T11:00:08;9.50;99.90
14357;DHT22;7262;48.764;9.166;2024-03-23T11:02:35;8.90;99.90
14357;DHT22;7262;48.764;9.166;2024-03-23T11:05:02;8.30;99.90
14357;DHT22;7262;48.764;9.166;2024-03-23T11:07:49;7.80;99.90
14357;DHT22;7262;48.764;9.166;2024-03-23T11:10:24;7.10;99.90
14357;DHT22;7262;48.764;9.166;2024-03-23T11:12:54;6.90;99.90
14357;DHT22;7262;48.764;9.166;2024-03-23T11:15:21;6.90;99.90
14357;DHT22;7262;48.764;9.166;2024-03-23T11:20:34;7.50;99.90
14357;DHT22;7262;48.764;9.166;2024-03-23T11:23:00;7.80;99.90
14357;DHT22;7262;48.764;9.166;2024-03-23T11:25:27;8.20;99.90
14357;DHT22;7262;48.764;9.166;2024-03-23T11:27:54;8.20;99.90
14357;DHT22;7262;48.764;9.166;2024-03-23T11:30:22;8.40;99.90
14357;DHT22;7262;48.764;9.166;2024-03-23T11:32:49;9.20;99.90
14357;DHT22;7262;48.764;9.166;2024-03-23T11:35:25;10.10;99.90
14357;DHT22;7262;48.764;9.166;2024-03-23T11:38:03;9.80;99.90
14357;DHT22;7262;48.764;9.166;2024-03-23T11:40:30;9.60;99.90
14357;DHT22;7262;48.764;9.166;2024-03-23T11:42:58;9.80;99.90
14357;DHT22;7262;48.764;9.166;2024-03-23T11:45:24;11.00;99.90
14357;DHT22;7262;48.764;9.166;2024-03-23T11:48:01;11.60;99.90
14357;DHT22;7262;48.764;9.166;2024-03-23T11:50:28;12.20;99.90
14357;DHT22;7262;48.764;9.166;2024-03-23T11:53:01;12.30;99.90
14357;DHT22;7262;48.764;9.166;2024-03-23T11:55:39;12.10;99.90
14357;DHT22;7262;48.764;9.166;2024-03-23T11:58:05;12.30;99.90
14357;DHT22;7262;48.764;9.166;2024-03-23T12:00:33;12.10;99.90
14357;DHT22;7262;48.764;9.166;2024-03-23T12:03:00;11.90;99.90
14357;DHT22;7262;48.764;9.166;2024-03-23T12:05:26;11.70;99.90
14357;DHT22;7262;48.764;9.166;2024-03-23T12:07:52;11.30;99.90
14357;DHT22;7262;48.764;9.166;2024-03-23T12:10:19;11.10;99.90
14357;DHT22;7262;48.764;9.166;2024-03-23T12:12:51;11.30;99.90
14357;DHT22;7262;48.764;9.166;2024-03-23T12:15:24;11.80;99.90
14357;DHT22;7262;48.764;9.166;2024-03-23T12:17:50;12.20;99.90
14357;DHT22;7262;48.764;9.166;2024-03-23T12:20:17;12.10;99.90
14357;DHT22;7262;48.764;9.166;2024-03-23T12:22:42;11.70;99.90
14357;DHT22;7262;48.764;9.166;2024-03-23T12:25:11;11.40;99.90
14357;DHT22;7262;48.764;9.166;2024-03-23T12:27:36;11.10;99.90
14357;DHT22;7262;48.764;9.166;2024-03-23T12:30:06;11.10;99.90
14357;DHT22;7262;48.764;9.166;2024-03-23T12:32:32;11.70;99.90
14357;DHT22;7262;48.764;9.166;2024-03-23T12:35:03;13.30;99.90
14357;DHT22;7262;48.764;9.166;2024-03-23T12:37:29;14.10;99.90
14357;DHT22;7262;48.764;9.166;2024-03-23T12:39:56;13.60;99.90
14357;DHT22;7262;48.764;9.166;2024-03-23T12:42:21;13.20;99.90
14357;DHT22;7262;48.764;9.166;2024-03-23T12:44:49;12.50;99.90
14357;DHT22;7262;48.764;9.166;2024-03-23T12:47:16;11.90;99.90
14357;DHT22;7262;48.764;9.166;2024-03-23T12:49:43;11.40;99.90
14357;DHT22;7262;48.764;9.166;2024-03-23T12:52:09;11.20;99.90
14357;DHT22;7262;48.764;9.166;2024-03-23T12:54:38;10.90;99.90
14357;DHT22;7262;48.764;9.166;2024-03-23T12:57:04;10.80;99.90
14357;DHT22;7262;48.764;9.166;2024-03-23T12:59:31;10.70;99.90
14357;DHT22;7262;48.764;9.166;2024-03-23T13:02:02;10.60;99.90
14357;DHT22;7262;48.764;9.166;2024-03-23T13:04:30;10.60;99.90
14357;DHT22;7262;48.764;9.166;2024-03-23T13:06:58;11.00;99.90
14357;DHT22;7262;48.764;9.166;2024-03-23T13:09:23;11.60;99.90
14357;DHT22;7262;48.764;9.166;2024-03-23T13:11:50;12.70;99.90
14357;DHT22;7262;48.764;9.166;2024-03-23T13:14:16;12.60;99.90
14357;DHT22;7262;48.764;9.166;2024-03-23T13:16:43;11.90;99.90
14357;DHT22;7262;48.764;9.166;2024-03-23T13:19:09;12.20;99.90
14357;DHT22;7262;48.764;9.166;2024-03-23T13:21:38;13.50;99.90
14357;DHT22;7262;48.764;9.166;2024-03-23T13:24:07;14.30;99.90
14357;DHT22;7262;48.764;9.166;2024-03-23T13:26:33;13.40;99.90
14357;DHT22;7262;48.764;9.166;2024-03-23T13:29:00;12.70;99.90
14357;DHT22;7262;48.764;9.166;2024-03-23T13:31:27;12.80;99.90
14357;DHT22;7262;48.764;9.166;2024-03-23T13:33:53;12.50;99.90
14357;DHT22;7262;48.764;9.166;2024-03-23T13:36:19;12.70;99.90
14357;DHT22;7262;48.764;9.166;2024-03-23T13:38:47;12.60;99.90
14357;DHT22;7262;48.764;9.166;2024-03-23T13:41:13;12.50;99.90
14357;DHT22;7262;48.764;9.166;2024-03-23T13:43:39;13.30;99.90
14357;DHT22;7262;48.764;9.166;2024-03-23T13:46:06;14.30;99.90
14357;DHT22;7262;48.764;9.166;2024-03-23T13:48:32;15.00;99.90
14357;DHT22;7262;48.764;9.166;2024-03-23T13:51:02;15.30;99.90
14357;DHT22;7262;48.764;9.166;2024-03-23T13:53:28;15.10;99.90
14357;DHT22;7262;48.764;9.166;2024-03-23T13:55:57;15.50;99.90
14357;DHT22;7262;48.764;9.166;2024-03-23T16:17:58;8.80;99.90
14357;DHT22;7262;48.764;9.166;2024-03-23T16:20:25;8.60;99.90
14357;DHT22;7262;48.764;9.166;2024-03-23T16:22:51;8.50;99.90
14357;DHT22;7262;48.764;9.166;2024-03-23T16:25:18;8.50;99.90
14357;DHT22;7262;48.764;9.166;2024-03-23T16:27:44;8.40;99.90
14357;DHT22;7262;48.764;9.166;2024-03-23T16:30:11;8.20;99.90
14357;DHT22;7262;48.764;9.166;2024-03-23T16:32:37;8.20;99.90
14357;DHT22;7262;48.764;9.166;2024-03-23T16:35:05;8.20;99.90
14357;DHT22;7262;48.764;9.166;2024-03-23T16:37:31;8.20;99.90
14357;DHT22;7262;48.764;9.166;2024-03-23T16:39:58;8.20;99.90
14357;DHT22;7262;48.764;9.166;2024-03-23T16:42:23;8.10;99.90
14357;DHT22;7262;48.764;9.166;2024-03-23T16:44:50;8.00;99.90
14357;DHT22;7262;48.764;9.166;2024-03-23T16:47:16;8.10;99.90
14357;DHT22;7262;48.764;9.166;2024-03-23T16:49:45;8.10;99.90
14357;DHT22;7262;48.764;9.166;2024-03-23T16:52:15;7.90;99.90
14357;DHT22;7262;48.764;9.166;2024-03-23T16:54:43;7.80;99.90
14357;DHT22;7262;48.764;9.166;2024-03-23T16:57:13;7.50;99.90
14357;DHT22;7262;48.764;9.166;2024-03-23T16:59:40;7.30;99.90
14357;DHT22;7262;48.764;9.166;2024-03-23T17:02:07;7.30;99.90
14357;DHT22;7262;48.764;9.166;2024-03-23T17:04:34;7.20;99.90
14357;DHT22;7262;48.764;9.166;2024-03-23T17:07:02;7.20;99.90
14357;DHT22;7262;48.764;9.166;2024-03-23T17:09:29;7.10;99.90
14357;DHT22;7262;48.764;9.166;2024-03-23T17:11:57;7.10;99.90
14357;DHT22;7262;48.764;9.166;2024-03-23T17:14:27;7.00;99.90
14357;DHT22;7262;48.764;9.166;2024-03-23T17:16:55;6.90;99.90
14357;DHT22;7262;48.764;9.166;2024-03-23T17:19:21;6.90;99.90
14357;DHT22;7262;48.764;9.166;2024-03-23T17:21:48;7.00;99.90
14357;DHT22;7262;48.764;9.166;2024-03-23T17:24:15;6.90;99.90
14357;DHT22;7262;48.764;9.166;2024-03-23T17:26:43;7.00;99.90
14357;DHT22;7262;48.764;9.166;2024-03-23T17:29:09;7.00;99.90
14357;DHT22;7262;48.764;9.166;2024-03-23T17:31:36;7.10;99.90
14357;DHT22;7262;48.764;9.166;2024-03-23T17:34:03;7.10;99.90
14357;DHT22;7262;48.764;9.166;2024-03-23T17:36:30;7.20;99.90
14357;DHT22;7262;48.764;9.166;2024-03-23T17:38:56;7.10;99.90
14357;DHT22;7262;48.764;9.166;2024-03-23T17:41:23;7.20;99.90
14357;DHT22;7262;48.764;9.166;2024-03-23T17:43:52;7.10;99.90
14357;DHT22;7262;48.764;9.166;2024-03-23T17:46:19;7.00;99.90
14357;DHT22;7262;48.764;9.166;2024-03-23T17:48:45;6.70;99.90
14357;DHT22;7262;48.764;9.166;2024-03-23T17:51:13;6.10;99.90
14357;DHT22;7262;48.764;9.166;2024-03-23T17:53:39;5.60;99.90
14357;DHT22;7262;48.764;9.166;2024-03-23T17:56:07;5.30;99.90
14357;DHT22;7262;48.764;9.166;2024-03-23T17:58:33;5.10;99.90
14357;DHT22;7262;48.764;9.166;2024-03-23T18:01:06;4.90;99.90
14357;DHT22;7262;48.764;9.166;2024-03-23T18:03:32;4.80;99.90
14357;DHT22;7262;48.764;9.166;2024-03-23T18:06:01;4.90;99.90
14357;DHT22;7262;48.764;9.166;2024-03-23T18:08:40;4.80;99.90
14357;DHT22;7262;48.764;9.166;2024-03-23T18:11:07;4.80;99.90
14357;DHT22;7262;48.764;9.166;2024-03-23T18:13:34;4.80;99.90
14357;DHT22;7262;48.764;9.166;2024-03-23T18:16:04;4.80;99.90
14357;DHT22;7262;48.764;9.166;2024-03-23T18:18:31;4.70;99.90
14357;DHT22;7262;48.764;9.166;2024-03-23T18:21:02;4.60;99.90
14357;DHT22;7262;48.764;9.166;2024-03-23T18:23:30;4.50;99.90
14357;DHT22;7262;48.764;9.166;2024-03-23T18:25:57;4.50;99.90
14357;DHT22;7262;48.764;9.166;2024-03-23T18:28:23;4.50;99.90
14357;DHT22;7262;48.764;9.166;2024-03-23T18:30:55;4.50;99.90
14357;DHT22;7262;48.764;9.166;2024-03-23T18:33:21;4.40;99.90
14357;DHT22;7262;48.764;9.166;2024-03-23T18:35:50;4.60;99.90
14357;DHT22;7262;48.764;9.166;2024-03-23T18:38:16;4.40;99.90
14357;DHT22;7262;48.764;9.166;2024-03-23T18:40:44;4.40;99.90
14357;DHT22;7262;48.764;9.166;2024-03-23T18:43:10;4.40;99.90
14357;DHT22;7262;48.764;9.166;2024-03-23T18:45:36;4.50;99.90
14357;DHT22;7262;48.764;9.166;2024-03-23T18:48:02;4.50;99.90
14357;DHT22;7262;48.764;9.166;2024-03-23T18:50:29;4.40;99.90
14357;DHT22;7262;48.764;9.166;2024-03-23T18:52:56;4.50;99.90
14357;DHT22;7262;48.764;9.166;2024-03-23T18:55:23;4.50;99.90
14357;DHT22;7262;48.764;9.166;2024-03-23T18:57:49;4.50;99.90
14357;DHT22;7262;48.764;9.166;2024-03-23T19:00:16;4.50;99.90
14357;DHT22;7262;48.764;9.166;2024-03-23T19:02:43;4.40;99.90
14357;DHT22;7262;48.764;9.166;2024-03-23T19:05:10;4.40;99.90
14357;DHT22;7262;48.764;9.166;2024-03-23T19:07:36;4.40;99.90
14357;DHT22;7262;48.764;9.166;2024-03-23T19:10:07;4.40;99.90
14357;DHT22;7262;48.764;9.166;2024-03-23T19:12:33;4.50;99.90
14357;DHT22;7262;48.764;9.166;2024-03-23T19:15:01;4.50;99.90
14357;DHT22;7262;48.764;9.166;2024-03-23T19:17:30;4.60;99.90
14357;DHT22;7262;48.764;9.166;2024-03-23T19:19:57;4.50;99.90
14357;DHT22;7262;48.764;9.166;2024-03-23T19:22:22;4.60;99.90
14357;DHT22;7262;48.764;9.166;2024-03-23T19:24:49;4.70;99.90
14357;DHT22;7262;48.764;9.166;2024-03-23T19:27:17;4.50;99.90
14357;DHT22;7262;48.764;9.166;2024-03-23T19:29:44;4.50;99.90
14357;DHT22;7262;48.764;9.166;2024-03-23T19:32:10;4.50;99.90
14357;DHT22;7262;48.764;9.166;2024-03-23T19:34:37;4.50;99.90
14357;DHT22;7262;48.764;9.166;2024-03-23T19:37:03;4.50;99.90
14357;DHT22;7262;48.764;9.166;2024-03-23T19:39:30;4.40;99.90
14357;DHT22;7262;48.764;9.166;2024-03-23T19:41:56;4.40;99.90
14357;DHT22;7262;48.764;9.166;2024-03-23T19:44:24;4.20;99.90
14357;DHT22;7262;48.764;9.166;2024-03-23T19:46:50;4.30;99.90
14357;DHT22;7262;48.764;9.166;2024-03-23T19:49:18;4.40;99.90
14357;DHT22;7262;48.764;9.166;2024-03-23T19:51:44;4.30;99.90
14357;DHT22;7262;48.764;9.166;2024-03-23T19:54:13;4.20;99.90
14357;DHT22;7262;48.764;9.166;2024-03-23T19:56:39;4.20;99.90
14357;DHT22;7262;48.764;9.166;2024-03-23T19:59:06;4.20;99.90
14357;DHT22;7262;48.764;9.166;2024-03-23T20:01:34;4.10;99.90
14357;DHT22;7262;48.764;9.166;2024-03-23T20:04:00;4.00;99.90
14357;DHT22;7262;48.764;9.166;2024-03-23T20:06:26;4.00;99.90
14357;DHT22;7262;48.764;9.166;2024-03-23T20:08:54;4.00;99.90
14357;DHT22;7262;48.764;9.166;2024-03-23T20:11:23;4.00;99.90
14357;DHT22;7262;48.764;9.166;2024-03-23T20:13:50;3.80;99.90
14357;DHT22;7262;48.764;9.166;2024-03-23T20:16:16;3.90;99.90
14357;DHT22;7262;48.764;9.166;2024-03-23T20:18:45;3.90;99.90
14357;DHT22;7262;48.764;9.166;2024-03-23T20:21:12;3.80;99.90
14357;DHT22;7262;48.764;9.166;2024-03-23T20:23:39;3.90;99.90
14357;DHT22;7262;48.764;9.166;2024-03-23T20:26:04;3.90;99.90
14357;DHT22;7262;48.764;9.166;2024-03-23T20:28:31;3.90;99.90
14357;DHT22;7262;48.764;9.166;2024-03-23T20:30:58;3.80;99.90
14357;DHT22;7262;48.764;9.166;2024-03-23T20:33:25;3.90;99.90
14357;DHT22;7262;48.764;9.166;2024-03-23T20:35:52;3.80;99.90
14357;DHT22;7262;48.764;9.166;2024-03-23T20:38:20;3.70;99.90
14357;DHT22;7262;48.764;9.166;2024-03-23T20:40:50;3.80;99.90
14357;DHT22;7262;48.764;9.166;2024-03-23T20:43:18;3.80;99.90
14357;DHT22;7262;48.764;9.166;2024-03-23T20:45:44;4.00;99.90
14357;DHT22;7262;48.764;9.166;2024-03-23T20:48:11;3.80;99.90
14357;DHT22;7262;48.764;9.166;2024-03-23T20:50:38;3.80;99.90
14357;DHT22;7262;48.764;9.166;2024-03-23T20:53:06;3.80;99.90